Ostroleka, Poland

10:05 PM CEST on August 30, 2014 (GMT +0200)
Wypychy | Change Station
CLOSE
Current Station
Personal Weather Station
Location: Ostroleka, MAZOWIECKIE
Elevation: 335 ft
Nearby Weather Stations

Elev 335 ft 53.07 °N, 21.61 °E | Updated 5 minutes ago

Clear
Clear
59.9 °F
Feels Like 59.9 °F
N
0.0
Wind Variable Wind from SSW
Gusts 0.7 mph

Today
High -- | Low -- °F
--% Chance of Precip.
Yesterday
High -- | Low -- °F
Precip. -- in
5:39 AM 7:27 PM
Waxing Crescent, 24% visible
Pressure 30.01 in
Visibility -9999.0 miles
Clouds
Dew Point 58 °F
Humidity 93%
Rainfall 0.05 in
Snow Depth Not available.
UV Not available.
Pollen Not available.
Air Quality Not available.
Flu Activity Not available.
METAR EPMO 302000Z 24005KT CAVOK 17/14 Q1016

More Conditions Fewer Conditions

Pressure 30.01 in
Visibility -9999.0 miles
Clouds
Dew Point 58 °F
Humidity 93%
Rainfall 0.05 in
Snow Depth Not available.
UV Not available.
Pollen Not available.
Air Quality Not available.
Flu Activity Not available.
METAR EPMO 302000Z 24005KT CAVOK 17/14 Q1016

More Conditions Fewer Conditions

10-Day Weather Forecast

Almanac

Astronomy

Aug. 30, 2014 Rise Set
Actual Time 5:39 AM CEST 7:27 PM CEST
Civil Twilight 5:03 AM CEST 8:04 PM CEST
Nautical Twilight 4:17 AM CEST 8:49 PM CEST
Astronomical Twilight 3:25 AM CEST 9:40 PM CEST
Moon 10:51 AM CEST 9:06 PM CEST
Length of Visible Light 15h 01m
Length of Day
13h 48m
Tomorrow will be 4m 2s shorter.
Waxing Crescent, 24% of the Moon is Illuminated
Today
Waxing Crescent
Sep 2
First Quarter
Sep 8
Full
Sep 15
Last Quarter
Sep 24
New

Today's Extremes

Country Highs Country Lows

Community

WunderPhotos

Upload Photos

1,748,620 photos uploaded!

WunderBlogs® & News

Nearby

Snow Depth

Not available.

Earthquake Activity

City Distance Mag. Time & Date
No recent earthquake activity has been reported nearby.
Minimum magnitude displayed is 2.5.

Coastal Water Temperatures

Place Temperature
No Stations Reporting

Nearby Weather Stations